createdAt,value
2022-12-19T00:06:41.932Z,85
2022-12-19T00:16:41.603Z,85
2022-12-19T00:26:43.675Z,85
2022-12-19T00:36:46.095Z,86
2022-12-19T00:46:50.278Z,86
2022-12-19T00:56:49.901Z,86
2022-12-19T01:06:52.015Z,86
2022-12-19T01:16:54.148Z,86
2022-12-19T01:36:58.692Z,87
2022-12-19T01:47:00.624Z,87
2022-12-19T01:57:02.843Z,87
2022-12-19T02:27:09.310Z,87
2022-12-19T02:37:10.980Z,87
2022-12-19T03:17:19.571Z,87
2022-12-19T03:27:22.052Z,87
2022-12-19T03:47:25.542Z,87
2022-12-19T04:27:33.158Z,87
2022-12-19T04:47:37.794Z,87
2022-12-19T04:57:40.274Z,87
2022-12-19T05:07:42.601Z,87
2022-12-19T05:37:48.443Z,88
2022-12-19T05:47:50.977Z,88
2022-12-19T05:57:53.502Z,88
2022-12-19T06:07:55.409Z,89
2022-12-19T06:17:57.529Z,89
2022-12-19T06:27:59.708Z,89
2022-12-19T06:38:01.961Z,89
2022-12-19T06:48:03.762Z,89
2022-12-19T06:58:06.365Z,89
2022-12-19T07:08:08.248Z,90
2022-12-19T07:28:12.365Z,90
2022-12-19T07:38:14.587Z,90
2022-12-19T07:48:16.962Z,90
2022-12-19T07:58:19.023Z,90
2022-12-19T08:08:21.260Z,90
2022-12-19T08:28:25.394Z,90
2022-12-19T08:38:27.309Z,90
2022-12-19T08:48:29.862Z,90
2022-12-19T08:58:32.467Z,90
2022-12-19T09:18:36.600Z,90
2022-12-19T09:28:38.980Z,90
2022-12-19T09:38:40.934Z,90
2022-12-19T09:48:42.988Z,90
2022-12-19T09:58:45.182Z,90
2022-12-19T10:09:08.707Z,90
2022-12-19T10:18:52.791Z,90
2022-12-19T10:28:52.029Z,90
2022-12-19T10:38:54.362Z,90
2022-12-19T10:48:56.595Z,90
2022-12-19T10:58:58.865Z,90
2022-12-19T11:09:01.243Z,90
2022-12-19T11:21:42.767Z,90
2022-12-19T11:29:28.993Z,89
2022-12-19T11:39:07.721Z,89
2022-12-19T11:49:10.120Z,89
2022-12-19T11:59:11.936Z,89
2022-12-19T12:10:51.968Z,88
2022-12-19T12:23:02.067Z,88
2022-12-19T12:31:35.158Z,88
2022-12-19T12:39:24.198Z,88
2022-12-19T12:49:23.138Z,87
2022-12-19T12:59:25.714Z,87
2022-12-19T13:09:27.874Z,86
2022-12-19T13:19:30.187Z,85
2022-12-19T13:29:32.517Z,84
2022-12-19T13:39:52.958Z,84
2022-12-19T13:49:37.333Z,84
2022-12-19T13:59:40.241Z,83
2022-12-19T14:19:44.032Z,83
2022-12-19T14:39:48.071Z,82
2022-12-19T14:52:11.785Z,81
2022-12-19T14:59:51.976Z,80
2022-12-19T15:19:56.425Z,80
2022-12-19T15:50:03.056Z,80
2022-12-19T16:30:16.657Z,79
2022-12-19T17:00:19.434Z,79
2022-12-19T17:00:41.481Z,79
2022-12-19T17:10:28.662Z,79
2022-12-19T17:30:33.030Z,79
2022-12-19T17:40:35.645Z,79
2022-12-19T17:50:37.865Z,80
2022-12-19T18:00:39.748Z,80
2022-12-19T18:10:42.191Z,80
2022-12-19T18:20:44.582Z,80
2022-12-19T18:30:47.037Z,80
2022-12-19T18:40:49.449Z,80
2022-12-19T18:50:51.498Z,80
2022-12-19T19:00:58.925Z,81
2022-12-19T19:10:56.591Z,81
2022-12-19T19:21:01.162Z,81
2022-12-19T19:31:00.798Z,81
2022-12-19T19:41:03.118Z,81
2022-12-19T19:51:05.562Z,81
2022-12-19T20:01:08.191Z,81
2022-12-19T20:21:13.307Z,81
2022-12-19T20:31:14.277Z,81
2022-12-19T20:41:16.759Z,81
2022-12-19T20:51:18.618Z,81
2022-12-19T21:01:21.352Z,81
2022-12-19T21:11:23.682Z,81
2022-12-19T21:21:26.159Z,81
2022-12-19T21:31:28.423Z,81
2022-12-19T21:41:30.370Z,81
2022-12-19T21:51:32.505Z,80
2022-12-19T22:01:34.546Z,80
2022-12-19T22:11:36.802Z,79
2022-12-19T22:21:39.042Z,79
2022-12-19T22:31:40.898Z,79
2022-12-19T22:41:42.912Z,79
2022-12-19T22:51:44.789Z,79
2022-12-19T23:01:46.675Z,80
2022-12-19T23:11:48.476Z,80
2022-12-19T23:21:50.145Z,80
2022-12-19T23:31:52.184Z,81
2022-12-19T23:41:53.963Z,81
2022-12-19T23:51:55.895Z,81
